sensor_id;sensor_type;location;lat;lon;timestamp;pressure;altitude;pressure_sealevel;temperature;humidity
21781;BME280;52576;53.614;9.894;2023-02-03T00:00:31;101472.22;;;4.86;88.01
21781;BME280;52576;53.614;9.894;2023-02-03T00:02:34;101486.00;;;4.88;88.14
21781;BME280;52576;53.614;9.894;2023-02-03T00:04:37;101485.09;;;4.89;88.30
21781;BME280;52576;53.614;9.894;2023-02-03T00:06:41;101485.91;;;4.91;88.13
21781;BME280;52576;53.614;9.894;2023-02-03T00:08:45;101492.81;;;4.92;88.37
21781;BME280;52576;53.614;9.894;2023-02-03T00:10:49;101483.13;;;4.96;88.27
21781;BME280;52576;53.614;9.894;2023-02-03T00:12:52;101476.19;;;4.96;88.42
21781;BME280;52576;53.614;9.894;2023-02-03T00:14:55;101469.19;;;4.98;88.48
21781;BME280;52576;53.614;9.894;2023-02-03T00:16:58;101466.50;;;5.01;88.61
21781;BME280;52576;53.614;9.894;2023-02-03T00:19:01;101458.66;;;5.03;88.58
21781;BME280;52576;53.614;9.894;2023-02-03T00:21:05;101455.91;;;5.07;88.76
21781;BME280;52576;53.614;9.894;2023-02-03T00:23:09;101453.22;;;5.10;88.92
21781;BME280;52576;53.614;9.894;2023-02-03T00:25:14;101464.31;;;5.16;89.09
21781;BME280;52576;53.614;9.894;2023-02-03T00:27:17;101454.66;;;5.19;89.04
21781;BME280;52576;53.614;9.894;2023-02-03T00:29:21;101458.78;;;5.25;89.11
21781;BME280;52576;53.614;9.894;2023-02-03T00:31:26;101456.88;;;5.30;89.34
21781;BME280;52576;53.614;9.894;2023-02-03T00:33:29;101448.00;;;5.37;89.53
21781;BME280;52576;53.614;9.894;2023-02-03T00:35:37;101446.88;;;5.44;89.70
21781;BME280;52576;53.614;9.894;2023-02-03T00:37:40;101444.03;;;5.50;89.86
21781;BME280;52576;53.614;9.894;2023-02-03T00:39:57;101441.22;;;5.56;89.89
21781;BME280;52576;53.614;9.894;2023-02-03T00:42:02;101442.72;;;5.63;90.06
21781;BME280;52576;53.614;9.894;2023-02-03T00:44:05;101439.91;;;5.69;90.16
21781;BME280;52576;53.614;9.894;2023-02-03T00:46:08;101434.47;;;5.75;90.15
21781;BME280;52576;53.614;9.894;2023-02-03T00:48:12;101434.25;;;5.82;90.36
21781;BME280;52576;53.614;9.894;2023-02-03T00:50:17;101433.19;;;5.87;90.46
21781;BME280;52576;53.614;9.894;2023-02-03T00:52:20;101433.00;;;5.93;90.43
21781;BME280;52576;53.614;9.894;2023-02-03T00:54:24;101418.88;;;5.99;90.69
21781;BME280;52576;53.614;9.894;2023-02-03T00:56:27;101409.16;;;6.04;90.67
21781;BME280;52576;53.614;9.894;2023-02-03T00:58:31;101412.44;;;6.09;90.79
21781;BME280;52576;53.614;9.894;2023-02-03T01:00:37;101405.31;;;6.14;90.70
21781;BME280;52576;53.614;9.894;2023-02-03T01:02:40;101401.69;;;6.18;90.87
21781;BME280;52576;53.614;9.894;2023-02-03T01:04:43;101399.75;;;6.23;90.95
21781;BME280;52576;53.614;9.894;2023-02-03T01:06:46;101399.63;;;6.26;91.02
21781;BME280;52576;53.614;9.894;2023-02-03T01:08:49;101403.81;;;6.30;91.07
21781;BME280;52576;53.614;9.894;2023-02-03T01:10:53;101388.84;;;6.35;91.13
21781;BME280;52576;53.614;9.894;2023-02-03T01:12:56;101395.63;;;6.39;91.09
21781;BME280;52576;53.614;9.894;2023-02-03T01:15:03;101389.47;;;6.42;90.99
21781;BME280;52576;53.614;9.894;2023-02-03T01:17:07;101386.69;;;6.46;90.91
21781;BME280;52576;53.614;9.894;2023-02-03T01:19:10;101384.88;;;6.49;90.99
21781;BME280;52576;53.614;9.894;2023-02-03T01:21:14;101379.50;;;6.52;91.06
21781;BME280;52576;53.614;9.894;2023-02-03T01:23:18;101385.50;;;6.54;90.89
21781;BME280;52576;53.614;9.894;2023-02-03T01:25:21;101370.66;;;6.56;90.98
21781;BME280;52576;53.614;9.894;2023-02-03T01:27:24;101368.84;;;6.58;90.78
21781;BME280;52576;53.614;9.894;2023-02-03T01:29:30;101361.81;;;6.60;90.74
21781;BME280;52576;53.614;9.894;2023-02-03T01:31:36;101370.44;;;6.62;90.72
21781;BME280;52576;53.614;9.894;2023-02-03T01:33:41;101356.50;;;6.63;90.52
21781;BME280;52576;53.614;9.894;2023-02-03T01:35:47;101353.75;;;6.66;90.51
21781;BME280;52576;53.614;9.894;2023-02-03T01:37:50;101342.44;;;6.67;90.37
21781;BME280;52576;53.614;9.894;2023-02-03T01:39:53;101326.81;;;6.67;90.12
21781;BME280;52576;53.614;9.894;2023-02-03T01:41:56;101318.09;;;6.68;90.13
21781;BME280;52576;53.614;9.894;2023-02-03T01:44:00;101323.28;;;6.68;90.00
21781;BME280;52576;53.614;9.894;2023-02-03T01:46:17;101309.34;;;6.69;89.63
21781;BME280;52576;53.614;9.894;2023-02-03T01:48:23;101311.06;;;6.70;89.55
21781;BME280;52576;53.614;9.894;2023-02-03T01:50:29;101302.31;;;6.71;89.67
21781;BME280;52576;53.614;9.894;2023-02-03T01:52:34;101301.41;;;6.72;89.54
21781;BME280;52576;53.614;9.894;2023-02-03T01:54:40;101302.28;;;6.72;89.38
21781;BME280;52576;53.614;9.894;2023-02-03T01:56:47;101308.31;;;6.73;89.38
21781;BME280;52576;53.614;9.894;2023-02-03T01:58:53;101304.81;;;6.74;89.29
21781;BME280;52576;53.614;9.894;2023-02-03T02:00:57;101312.63;;;6.74;89.27
21781;BME280;52576;53.614;9.894;2023-02-03T02:03:01;101317.84;;;6.74;89.12
21781;BME280;52576;53.614;9.894;2023-02-03T02:05:12;101308.25;;;6.74;89.05
21781;BME280;52576;53.614;9.894;2023-02-03T02:07:15;101323.03;;;6.74;89.01
21781;BME280;52576;53.614;9.894;2023-02-03T02:09:19;101307.41;;;6.74;88.94
21781;BME280;52576;53.614;9.894;2023-02-03T02:11:22;101307.41;;;6.74;88.85
21781;BME280;52576;53.614;9.894;2023-02-03T02:13:26;101306.63;;;6.72;88.82
21781;BME280;52576;53.614;9.894;2023-02-03T02:15:39;101312.75;;;6.71;88.87
21781;BME280;52576;53.614;9.894;2023-02-03T02:18:02;101317.13;;;6.70;88.88
21781;BME280;52576;53.614;9.894;2023-02-03T02:22:59;101292.03;;;6.68;88.91
21781;BME280;52576;53.614;9.894;2023-02-03T02:25:35;101292.88;;;6.68;88.78
21781;BME280;52576;53.614;9.894;2023-02-03T02:28:09;101279.91;;;6.67;88.83
21781;BME280;52576;53.614;9.894;2023-02-03T02:33:09;101287.72;;;6.67;88.87
21781;BME280;52576;53.614;9.894;2023-02-03T02:35:18;101285.13;;;6.67;88.86
21781;BME280;52576;53.614;9.894;2023-02-03T02:37:32;101279.91;;;6.67;88.83
21781;BME280;52576;53.614;9.894;2023-02-03T02:39:43;101272.97;;;6.67;88.97
21781;BME280;52576;53.614;9.894;2023-02-03T02:41:55;101281.63;;;6.68;88.88
21781;BME280;52576;53.614;9.894;2023-02-03T02:44:02;101278.94;;;6.69;88.84
21781;BME280;52576;53.614;9.894;2023-02-03T02:46:10;101279.00;;;6.68;88.88
21781;BME280;52576;53.614;9.894;2023-02-03T02:48:21;101278.09;;;6.69;88.82
21781;BME280;52576;53.614;9.894;2023-02-03T02:50:27;101277.25;;;6.68;88.64
21781;BME280;52576;53.614;9.894;2023-02-03T02:52:37;101285.91;;;6.69;88.70
21781;BME280;52576;53.614;9.894;2023-02-03T02:54:46;101285.00;;;6.70;88.66
21781;BME280;52576;53.614;9.894;2023-02-03T02:56:54;101274.59;;;6.70;88.74
21781;BME280;52576;53.614;9.894;2023-02-03T02:59:00;101257.13;;;6.72;88.57
21781;BME280;52576;53.614;9.894;2023-02-03T03:01:06;101254.47;;;6.73;88.51
21781;BME280;52576;53.614;9.894;2023-02-03T03:03:13;101255.31;;;6.74;88.33
21781;BME280;52576;53.614;9.894;2023-02-03T03:05:18;101256.16;;;6.74;88.28
21781;BME280;52576;53.614;9.894;2023-02-03T03:07:26;101250.84;;;6.76;88.08
21781;BME280;52576;53.614;9.894;2023-02-03T03:09:33;101256.84;;;6.78;88.04
21781;BME280;52576;53.614;9.894;2023-02-03T03:11:40;101243.75;;;6.79;87.75
21781;BME280;52576;53.614;9.894;2023-02-03T03:13:47;101236.72;;;6.81;87.68
21781;BME280;52576;53.614;9.894;2023-02-03T03:15:53;101232.34;;;6.82;87.66
21781;BME280;52576;53.614;9.894;2023-02-03T03:18:02;101225.31;;;6.84;87.41
21781;BME280;52576;53.614;9.894;2023-02-03T03:20:10;101223.50;;;6.86;87.12
21781;BME280;52576;53.614;9.894;2023-02-03T03:22:17;101228.72;;;6.86;87.00
21781;BME280;52576;53.614;9.894;2023-02-03T03:24:26;101221.66;;;6.88;87.08
21781;BME280;52576;53.614;9.894;2023-02-03T03:26:33;101209.50;;;6.89;86.73
21781;BME280;52576;53.614;9.894;2023-02-03T03:28:41;101222.44;;;6.90;86.45
21781;BME280;52576;53.614;9.894;2023-02-03T03:30:47;101213.72;;;6.91;86.15
21781;BME280;52576;53.614;9.894;2023-02-03T03:32:50;101205.91;;;6.91;86.18
21781;BME280;52576;53.614;9.894;2023-02-03T03:34:54;101218.03;;;6.92;86.04
21781;BME280;52576;53.614;9.894;2023-02-03T03:37:02;101198.03;;;6.93;85.88
21781;BME280;52576;53.614;9.894;2023-02-03T03:39:13;101198.88;;;6.93;85.89
21781;BME280;52576;53.614;9.894;2023-02-03T03:41:24;101204.06;;;6.93;85.78
21781;BME280;52576;53.614;9.894;2023-02-03T03:43:31;101199.72;;;6.94;85.75
21781;BME280;52576;53.614;9.894;2023-02-03T03:45:40;101192.81;;;6.93;85.61
21781;BME280;52576;53.614;9.894;2023-02-03T03:47:50;101201.47;;;6.93;85.67
21781;BME280;52576;53.614;9.894;2023-02-03T03:49:56;101183.38;;;6.90;85.63
21781;BME280;52576;53.614;9.894;2023-02-03T03:52:06;101184.34;;;6.88;85.75
21781;BME280;52576;53.614;9.894;2023-02-03T03:54:14;101194.84;;;6.86;86.04
21781;BME280;52576;53.614;9.894;2023-02-03T03:56:23;101199.25;;;6.84;85.93
21781;BME280;52576;53.614;9.894;2023-02-03T03:58:29;101198.41;;;6.84;86.09
21781;BME280;52576;53.614;9.894;2023-02-03T04:00:34;101190.66;;;6.82;85.98
21781;BME280;52576;53.614;9.894;2023-02-03T04:02:41;101196.72;;;6.82;86.18
21781;BME280;52576;53.614;9.894;2023-02-03T04:04:47;101181.94;;;6.83;86.25
21781;BME280;52576;53.614;9.894;2023-02-03T04:06:52;101195.88;;;6.82;86.29
21781;BME280;52576;53.614;9.894;2023-02-03T04:08:56;101173.34;;;6.81;86.27
21781;BME280;52576;53.614;9.894;2023-02-03T04:11:00;101175.16;;;6.79;86.65
21781;BME280;52576;53.614;9.894;2023-02-03T04:13:04;101190.94;;;6.76;86.68
21781;BME280;52576;53.614;9.894;2023-02-03T04:15:08;101177.16;;;6.74;86.98
21781;BME280;52576;53.614;9.894;2023-02-03T04:17:11;101165.19;;;6.70;87.01
21781;BME280;52576;53.614;9.894;2023-02-03T04:19:14;101165.31;;;6.67;87.69
21781;BME280;52576;53.614;9.894;2023-02-03T04:21:18;101155.03;;;6.64;87.78
21781;BME280;52576;53.614;9.894;2023-02-03T04:23:21;101151.63;;;6.62;88.02
21781;BME280;52576;53.614;9.894;2023-02-03T04:25:25;101150.06;;;6.58;88.08
21781;BME280;52576;53.614;9.894;2023-02-03T04:27:29;101142.34;;;6.56;88.40
21781;BME280;52576;53.614;9.894;2023-02-03T04:29:32;101145.00;;;6.55;88.48
21781;BME280;52576;53.614;9.894;2023-02-03T04:31:36;101136.41;;;6.53;88.87
21781;BME280;52576;53.614;9.894;2023-02-03T04:33:40;101132.13;;;6.52;89.13
21781;BME280;52576;53.614;9.894;2023-02-03T04:35:43;101132.13;;;6.52;88.93
21781;BME280;52576;53.614;9.894;2023-02-03T04:37:46;101149.50;;;6.51;89.10
21781;BME280;52576;53.614;9.894;2023-02-03T04:39:49;101155.56;;;6.52;89.07
21781;BME280;52576;53.614;9.894;2023-02-03T04:41:53;101150.34;;;6.52;89.28
21781;BME280;52576;53.614;9.894;2023-02-03T04:43:57;101142.53;;;6.52;89.43
21781;BME280;52576;53.614;9.894;2023-02-03T04:46:00;101161.59;;;6.52;89.38
21781;BME280;52576;53.614;9.894;2023-02-03T04:48:03;101147.75;;;6.52;89.54
21781;BME280;52576;53.614;9.894;2023-02-03T04:50:07;101160.75;;;6.52;89.49
21781;BME280;52576;53.614;9.894;2023-02-03T04:52:11;101145.97;;;6.52;89.70
21781;BME280;52576;53.614;9.894;2023-02-03T04:54:15;101141.63;;;6.53;89.63
21781;BME280;52576;53.614;9.894;2023-02-03T04:56:18;101137.31;;;6.52;89.67
21781;BME280;52576;53.614;9.894;2023-02-03T04:58:21;101146.81;;;6.53;89.79
21781;BME280;52576;53.614;9.894;2023-02-03T05:00:27;101116.44;;;6.53;89.86
21781;BME280;52576;53.614;9.894;2023-02-03T05:02:31;101129.50;;;6.52;89.99
21781;BME280;52576;53.614;9.894;2023-02-03T05:04:34;101126.00;;;6.53;90.14
21781;BME280;52576;53.614;9.894;2023-02-03T05:06:37;101126.00;;;6.53;90.14
21781;BME280;52576;53.614;9.894;2023-02-03T05:08:40;101111.28;;;6.52;90.09
21781;BME280;52576;53.614;9.894;2023-02-03T05:10:43;101113.03;;;6.51;90.21
21781;BME280;52576;53.614;9.894;2023-02-03T05:12:46;101091.34;;;6.51;90.34
21781;BME280;52576;53.614;9.894;2023-02-03T05:14:49;101091.34;;;6.51;90.41
21781;BME280;52576;53.614;9.894;2023-02-03T05:16:54;101078.44;;;6.49;90.31
21781;BME280;52576;53.614;9.894;2023-02-03T05:18:57;101072.38;;;6.49;90.45
21781;BME280;52576;53.614;9.894;2023-02-03T05:21:00;101098.44;;;6.49;90.56
21781;BME280;52576;53.614;9.894;2023-02-03T05:23:03;101070.69;;;6.47;90.59
21781;BME280;52576;53.614;9.894;2023-02-03T05:25:07;101082.81;;;6.49;90.54
21781;BME280;52576;53.614;9.894;2023-02-03T05:27:11;101082.88;;;6.47;90.47
21781;BME280;52576;53.614;9.894;2023-02-03T05:29:14;101070.69;;;6.47;90.68
21781;BME280;52576;53.614;9.894;2023-02-03T05:31:17;101079.41;;;6.46;90.70
21781;BME280;52576;53.614;9.894;2023-02-03T05:33:21;101062.94;;;6.46;90.66
21781;BME280;52576;53.614;9.894;2023-02-03T05:35:25;101087.22;;;6.46;90.71
21781;BME280;52576;53.614;9.894;2023-02-03T05:37:28;101063.78;;;6.46;90.78
21781;BME280;52576;53.614;9.894;2023-02-03T05:39:31;101074.22;;;6.46;90.84
21781;BME280;52576;53.614;9.894;2023-02-03T05:41:34;101075.97;;;6.46;90.87
21781;BME280;52576;53.614;9.894;2023-02-03T05:43:55;101089.84;;;6.46;90.92
21781;BME280;52576;53.614;9.894;2023-02-03T05:45:59;101071.59;;;6.46;90.91
21781;BME280;52576;53.614;9.894;2023-02-03T05:48:02;101056.00;;;6.46;90.87
21781;BME280;52576;53.614;9.894;2023-02-03T05:50:07;101069.84;;;6.47;90.92
21781;BME280;52576;53.614;9.894;2023-02-03T05:52:10;101047.25;;;6.47;90.96
21781;BME280;52576;53.614;9.894;2023-02-03T05:54:14;101068.94;;;6.48;90.98
21781;BME280;52576;53.614;9.894;2023-02-03T05:56:17;101062.88;;;6.47;90.98
21781;BME280;52576;53.614;9.894;2023-02-03T05:58:20;101051.56;;;6.49;90.95
21781;BME280;52576;53.614;9.894;2023-02-03T06:00:23;101049.88;;;6.47;90.94
21781;BME280;52576;53.614;9.894;2023-02-03T06:02:27;101056.75;;;6.49;91.07
21781;BME280;52576;53.614;9.894;2023-02-03T06:04:30;101049.88;;;6.47;91.07
21781;BME280;52576;53.614;9.894;2023-02-03T06:06:34;101031.63;;;6.47;90.99
21781;BME280;52576;53.614;9.894;2023-02-03T06:08:37;101034.25;;;6.47;91.01
21781;BME280;52576;53.614;9.894;2023-02-03T06:10:40;101018.63;;;6.47;91.23
21781;BME280;52576;53.614;9.894;2023-02-03T06:12:44;101021.22;;;6.47;91.10
21781;BME280;52576;53.614;9.894;2023-02-03T06:14:47;101022.13;;;6.46;91.20
21781;BME280;52576;53.614;9.894;2023-02-03T06:16:50;101012.56;;;6.47;91.11
21781;BME280;52576;53.614;9.894;2023-02-03T06:18:54;100996.09;;;6.46;91.42
21781;BME280;52576;53.614;9.894;2023-02-03T06:20:59;101016.00;;;6.47;91.34
21781;BME280;52576;53.614;9.894;2023-02-03T06:23:03;101023.81;;;6.47;91.42
21781;BME280;52576;53.614;9.894;2023-02-03T06:25:07;101009.91;;;6.49;91.53
21781;BME280;52576;53.614;9.894;2023-02-03T06:27:13;101008.97;;;6.50;91.60
21781;BME280;52576;53.614;9.894;2023-02-03T06:29:17;101011.59;;;6.50;91.59
21781;BME280;52576;53.614;9.894;2023-02-03T06:31:20;100998.56;;;6.50;91.52
21781;BME280;52576;53.614;9.894;2023-02-03T06:33:23;101002.81;;;6.51;91.70
21781;BME280;52576;53.614;9.894;2023-02-03T06:35:26;101009.72;;;6.52;91.57
21781;BME280;52576;53.614;9.894;2023-02-03T06:37:29;101021.81;;;6.53;91.75
21781;BME280;52576;53.614;9.894;2023-02-03T06:39:34;101007.91;;;6.54;91.73
21781;BME280;52576;53.614;9.894;2023-02-03T06:41:37;101000.84;;;6.56;91.69
21781;BME280;52576;53.614;9.894;2023-02-03T06:43:40;101013.88;;;6.56;91.79
21781;BME280;52576;53.614;9.894;2023-02-03T06:45:44;100999.88;;;6.58;91.75
21781;BME280;52576;53.614;9.894;2023-02-03T06:47:47;100997.19;;;6.60;91.78
21781;BME280;52576;53.614;9.894;2023-02-03T06:49:50;100984.97;;;6.62;91.93
21781;BME280;52576;53.614;9.894;2023-02-03T06:51:54;100983.97;;;6.64;91.96
21781;BME280;52576;53.614;9.894;2023-02-03T06:53:57;100987.28;;;6.68;91.97
21781;BME280;52576;53.614;9.894;2023-02-03T06:56:02;101014.94;;;6.70;92.04
21781;BME280;52576;53.614;9.894;2023-02-03T06:58:05;101004.31;;;6.75;92.05
21781;BME280;52576;53.614;9.894;2023-02-03T07:00:10;100974.63;;;6.77;92.08
21781;BME280;52576;53.614;9.894;2023-02-03T07:02:18;100982.25;;;6.82;92.15
21781;BME280;52576;53.614;9.894;2023-02-03T07:04:22;100982.09;;;6.85;92.08
21781;BME280;52576;53.614;9.894;2023-02-03T07:06:25;100980.28;;;6.87;92.12
21781;BME280;52576;53.614;9.894;2023-02-03T07:08:29;100996.66;;;6.89;92.01
21781;BME280;52576;53.614;9.894;2023-02-03T07:10:32;101000.97;;;6.90;92.05
21781;BME280;52576;53.614;9.894;2023-02-03T07:12:37;100976.59;;;6.91;92.06
21781;BME280;52576;53.614;9.894;2023-02-03T07:14:40;100999.13;;;6.92;92.10
21781;BME280;52576;53.614;9.894;2023-02-03T07:16:43;100969.56;;;6.93;92.00
21781;BME280;52576;53.614;9.894;2023-02-03T07:18:46;100966.88;;;6.95;91.90
21781;BME280;52576;53.614;9.894;2023-02-03T07:20:50;100967.72;;;6.95;91.99
21781;BME280;52576;53.614;9.894;2023-02-03T07:22:54;100954.69;;;6.95;91.91
21781;BME280;52576;53.614;9.894;2023-02-03T07:24:58;100962.50;;;6.95;92.01
21781;BME280;52576;53.614;9.894;2023-02-03T07:27:01;100965.03;;;6.97;91.88
21781;BME280;52576;53.614;9.894;2023-02-03T07:29:07;101012.78;;;6.97;92.06
21781;BME280;52576;53.614;9.894;2023-02-03T07:31:10;100958.91;;;6.98;92.13
21781;BME280;52576;53.614;9.894;2023-02-03T07:33:13;100962.38;;;6.98;92.23
21781;BME280;52576;53.614;9.894;2023-02-03T07:35:16;100965.81;;;6.99;92.21
21781;BME280;52576;53.614;9.894;2023-02-03T07:37:20;100959.59;;;7.01;92.35
21781;BME280;52576;53.614;9.894;2023-02-03T07:39:23;100968.25;;;7.02;92.26
21781;BME280;52576;53.614;9.894;2023-02-03T07:41:26;100975.16;;;7.03;92.32
21781;BME280;52576;53.614;9.894;2023-02-03T07:43:29;100962.97;;;7.03;92.21
21781;BME280;52576;53.614;9.894;2023-02-03T07:45:33;100973.31;;;7.05;92.29
21781;BME280;52576;53.614;9.894;2023-02-03T07:47:37;100968.94;;;7.05;92.09
21781;BME280;52576;53.614;9.894;2023-02-03T07:49:40;100979.38;;;7.05;92.17
21781;BME280;52576;53.614;9.894;2023-02-03T07:51:43;100992.31;;;7.07;92.17
21781;BME280;52576;53.614;9.894;2023-02-03T07:53:46;100948.00;;;7.07;92.13
21781;BME280;52576;53.614;9.894;2023-02-03T07:55:49;100969.63;;;7.09;92.21
21781;BME280;52576;53.614;9.894;2023-02-03T07:57:52;100990.50;;;7.09;92.16
21781;BME280;52576;53.614;9.894;2023-02-03T07:59:55;100981.75;;;7.10;92.17
21781;BME280;52576;53.614;9.894;2023-02-03T08:02:00;100973.84;;;7.11;92.15
21781;BME280;52576;53.614;9.894;2023-02-03T08:04:03;101015.50;;;7.13;92.00
21781;BME280;52576;53.614;9.894;2023-02-03T08:06:07;100996.41;;;7.12;92.02
21781;BME280;52576;53.614;9.894;2023-02-03T08:08:10;101018.94;;;7.13;91.95
21781;BME280;52576;53.614;9.894;2023-02-03T08:10:14;101073.81;;;7.10;91.62
21781;BME280;52576;53.614;9.894;2023-02-03T08:12:19;101041.91;;;7.05;91.10
21781;BME280;52576;53.614;9.894;2023-02-03T08:14:26;101070.91;;;6.99;90.62
21781;BME280;52576;53.614;9.894;2023-02-03T08:16:30;101037.31;;;6.93;90.51
21781;BME280;52576;53.614;9.894;2023-02-03T08:18:35;101037.44;;;6.90;90.01
21781;BME280;52576;53.614;9.894;2023-02-03T08:20:38;101049.84;;;6.85;89.89
21781;BME280;52576;53.614;9.894;2023-02-03T08:22:41;101055.19;;;6.82;89.53
21781;BME280;52576;53.614;9.894;2023-02-03T08:24:45;101059.69;;;6.78;88.53
21781;BME280;52576;53.614;9.894;2023-02-03T08:26:48;101058.16;;;6.74;88.17
21781;BME280;52576;53.614;9.894;2023-02-03T08:28:51;101050.44;;;6.73;88.15
21781;BME280;52576;53.614;9.894;2023-02-03T08:30:54;101048.75;;;6.72;88.07
21781;BME280;52576;53.614;9.894;2023-02-03T08:32:58;101063.59;;;6.70;87.73
21781;BME280;52576;53.614;9.894;2023-02-03T08:35:05;101066.19;;;6.70;87.29
21781;BME280;52576;53.614;9.894;2023-02-03T08:37:10;101071.41;;;6.70;86.32
21781;BME280;52576;53.614;9.894;2023-02-03T08:39:14;101095.69;;;6.70;86.06
21781;BME280;52576;53.614;9.894;2023-02-03T08:41:17;101070.50;;;6.71;85.56
21781;BME280;52576;53.614;9.894;2023-02-03T08:43:21;101073.09;;;6.71;85.47
21781;BME280;52576;53.614;9.894;2023-02-03T08:45:24;101074.78;;;6.72;84.24
21781;BME280;52576;53.614;9.894;2023-02-03T08:47:27;101085.22;;;6.72;82.73
21781;BME280;52576;53.614;9.894;2023-02-03T08:49:30;101083.44;;;6.72;82.55
21781;BME280;52576;53.614;9.894;2023-02-03T08:51:35;101078.25;;;6.72;81.28
21781;BME280;52576;53.614;9.894;2023-02-03T08:53:38;101089.50;;;6.73;81.45
21781;BME280;52576;53.614;9.894;2023-02-03T08:55:41;101096.47;;;6.72;80.84
21781;BME280;52576;53.614;9.894;2023-02-03T08:57:44;101082.53;;;6.73;80.27
21781;BME280;52576;53.614;9.894;2023-02-03T08:59:48;101063.44;;;6.73;79.60
21781;BME280;52576;53.614;9.894;2023-02-03T09:01:52;101076.47;;;6.73;79.93
21781;BME280;52576;53.614;9.894;2023-02-03T09:03:56;101072.97;;;6.74;79.34
21781;BME280;52576;53.614;9.894;2023-02-03T09:05:59;101085.97;;;6.74;78.70
21781;BME280;52576;53.614;9.894;2023-02-03T09:08:04;101074.66;;;6.75;78.02
21781;BME280;52576;53.614;9.894;2023-02-03T09:10:08;101070.19;;;6.77;77.23
21781;BME280;52576;53.614;9.894;2023-02-03T09:12:11;101098.69;;;6.80;77.41
21781;BME280;52576;53.614;9.894;2023-02-03T09:14:14;101087.38;;;6.81;77.03
21781;BME280;52576;53.614;9.894;2023-02-03T09:16:18;101107.28;;;6.82;77.20
21781;BME280;52576;53.614;9.894;2023-02-03T09:18:22;101110.69;;;6.84;77.12
21781;BME280;52576;53.614;9.894;2023-02-03T09:20:25;101093.22;;;6.86;77.05
21781;BME280;52576;53.614;9.894;2023-02-03T09:22:29;101122.66;;;6.88;77.04
21781;BME280;52576;53.614;9.894;2023-02-03T09:24:33;101099.13;;;6.90;76.71
21781;BME280;52576;53.614;9.894;2023-02-03T09:26:36;101087.72;;;6.92;77.03
21781;BME280;52576;53.614;9.894;2023-02-03T09:28:39;101085.91;;;6.94;76.67
21781;BME280;52576;53.614;9.894;2023-02-03T09:30:42;101094.50;;;6.96;76.99
21781;BME280;52576;53.614;9.894;2023-02-03T09:32:45;101092.66;;;6.98;76.50
21781;BME280;52576;53.614;9.894;2023-02-03T09:34:54;101083.94;;;6.99;76.63
21781;BME280;52576;53.614;9.894;2023-02-03T09:36:57;101093.44;;;7.00;76.37
21781;BME280;52576;53.614;9.894;2023-02-03T09:39:00;101115.88;;;7.03;76.47
21781;BME280;52576;53.614;9.894;2023-02-03T09:41:13;101118.41;;;7.04;76.51
21781;BME280;52576;53.614;9.894;2023-02-03T09:43:31;101170.53;;;7.04;76.28
21781;BME280;52576;53.614;9.894;2023-02-03T09:45:38;101106.16;;;7.06;75.60
21781;BME280;52576;53.614;9.894;2023-02-03T09:47:42;101130.53;;;7.05;75.61
21781;BME280;52576;53.614;9.894;2023-02-03T09:49:48;101125.31;;;7.05;75.41
21781;BME280;52576;53.614;9.894;2023-02-03T09:51:54;101146.16;;;7.05;75.00
21781;BME280;52576;53.614;9.894;2023-02-03T09:54:04;101140.09;;;7.05;75.07
21781;BME280;52576;53.614;9.894;2023-02-03T09:56:19;101140.09;;;7.05;75.20
21781;BME280;52576;53.614;9.894;2023-02-03T09:58:27;101140.97;;;7.05;74.99
21781;BME280;52576;53.614;9.894;2023-02-03T10:00:36;101177.44;;;7.05;74.82
21781;BME280;52576;53.614;9.894;2023-02-03T10:02:53;101147.84;;;7.06;74.83
21781;BME280;52576;53.614;9.894;2023-02-03T10:05:01;101165.19;;;7.07;74.91
21781;BME280;52576;53.614;9.894;2023-02-03T10:07:13;101151.25;;;7.08;75.34
21781;BME280;52576;53.614;9.894;2023-02-03T10:09:29;101165.91;;;7.11;75.74
21781;BME280;52576;53.614;9.894;2023-02-03T10:11:54;101205.78;;;7.13;75.84
21781;BME280;52576;53.614;9.894;2023-02-03T10:14:10;101192.66;;;7.14;75.87
21781;BME280;52576;53.614;9.894;2023-02-03T10:16:31;101197.75;;;7.18;75.81
21781;BME280;52576;53.614;9.894;2023-02-03T10:18:39;101208.97;;;7.20;75.48
21781;BME280;52576;53.614;9.894;2023-02-03T10:20:47;101232.28;;;7.23;75.49
21781;BME280;52576;53.614;9.894;2023-02-03T10:22:54;101198.31;;;7.24;75.28
21781;BME280;52576;53.614;9.894;2023-02-03T10:25:01;101188.75;;;7.25;75.15
21781;BME280;52576;53.614;9.894;2023-02-03T10:27:14;101219.19;;;7.24;74.97
21781;BME280;52576;53.614;9.894;2023-02-03T10:29:20;101223.53;;;7.24;74.37
21781;BME280;52576;53.614;9.894;2023-02-03T10:31:27;101207.97;;;7.22;74.07
21781;BME280;52576;53.614;9.894;2023-02-03T10:33:33;101228.91;;;7.21;73.44
21781;BME280;52576;53.614;9.894;2023-02-03T10:35:40;101216.78;;;7.20;73.29
21781;BME280;52576;53.614;9.894;2023-02-03T10:37:49;101217.69;;;7.19;72.99
21781;BME280;52576;53.614;9.894;2023-02-03T10:39:54;101237.78;;;7.17;72.83
21781;BME280;52576;53.614;9.894;2023-02-03T10:42:00;101222.25;;;7.13;72.67
21781;BME280;52576;53.614;9.894;2023-02-03T10:44:08;101226.63;;;7.13;72.33
21781;BME280;52576;53.614;9.894;2023-02-03T10:46:13;101231.00;;;7.12;72.43
21781;BME280;52576;53.614;9.894;2023-02-03T10:48:17;101224.09;;;7.11;72.54
21781;BME280;52576;53.614;9.894;2023-02-03T10:50:23;101241.41;;;7.12;72.58
21781;BME280;52576;53.614;9.894;2023-02-03T10:52:33;101232.69;;;7.13;72.36
21781;BME280;52576;53.614;9.894;2023-02-03T10:54:36;101236.06;;;7.15;72.50
21781;BME280;52576;53.614;9.894;2023-02-03T10:56:40;101247.22;;;7.19;72.51
21781;BME280;52576;53.614;9.894;2023-02-03T10:58:47;101236.59;;;7.24;72.84
21781;BME280;52576;53.614;9.894;2023-02-03T11:00:56;101235.50;;;7.28;72.72
21781;BME280;52576;53.614;9.894;2023-02-03T11:03:05;101249.19;;;7.33;72.42
21781;BME280;52576;53.614;9.894;2023-02-03T11:05:19;101242.06;;;7.36;72.47
21781;BME280;52576;53.614;9.894;2023-02-03T11:07:24;101274.97;;;7.39;72.47
21781;BME280;52576;53.614;9.894;2023-02-03T11:09:30;101244.47;;;7.41;72.16